createdAt,value
2023-03-12T00:01:59.117Z,2.70
2023-03-12T00:04:25.629Z,3.22
2023-03-12T00:06:52.374Z,2.95
2023-03-12T00:09:18.790Z,2.72
2023-03-12T00:11:47.683Z,3.05
2023-03-12T00:14:14.321Z,2.90
2023-03-12T00:16:41.290Z,2.95
2023-03-12T00:19:08.153Z,2.88
2023-03-12T00:21:34.579Z,3.08
2023-03-12T00:24:00.974Z,2.85
2023-03-12T00:26:27.369Z,2.90
2023-03-12T00:28:55.170Z,3.08
2023-03-12T00:31:22.579Z,2.80
2023-03-12T00:33:49.367Z,3.22
2023-03-12T00:36:16.068Z,3.05
2023-03-12T00:38:42.443Z,3.35
2023-03-12T00:41:08.853Z,2.90
2023-03-12T00:43:35.247Z,2.83
2023-03-12T00:46:03.046Z,2.78
2023-03-12T00:48:29.424Z,3.28
2023-03-12T00:50:55.878Z,2.83
2023-03-12T00:53:22.296Z,2.90
2023-03-12T00:55:48.677Z,3.42
2023-03-12T00:58:15.036Z,3.20
2023-03-12T01:00:41.575Z,3.05
2023-03-12T01:03:09.365Z,3.30
2023-03-12T01:05:35.808Z,3.35
2023-03-12T01:08:02.182Z,3.00
2023-03-12T01:10:28.572Z,3.13
2023-03-12T01:12:54.937Z,3.10
2023-03-12T01:15:21.641Z,3.05
2023-03-12T01:17:48.205Z,3.25
2023-03-12T01:20:15.987Z,3.05
2023-03-12T01:22:42.380Z,3.20
2023-03-12T01:25:09.098Z,3.33
2023-03-12T01:27:35.492Z,2.83
2023-03-12T01:30:01.981Z,3.00
2023-03-12T01:32:28.675Z,3.50
2023-03-12T01:34:55.330Z,3.13
2023-03-12T01:37:23.131Z,3.42
2023-03-12T01:39:49.508Z,3.05
2023-03-12T01:42:15.957Z,3.22
2023-03-12T01:44:52.405Z,3.40
2023-03-12T01:47:18.801Z,2.85
2023-03-12T01:49:45.522Z,3.00
2023-03-12T01:52:13.734Z,3.33
2023-03-12T01:54:42.623Z,2.75
2023-03-12T01:57:11.065Z,3.03
2023-03-12T01:59:38.745Z,3.08
2023-03-12T02:02:06.440Z,2.80
2023-03-12T02:04:33.467Z,2.88
2023-03-12T02:07:02.419Z,3.42
2023-03-12T02:09:29.460Z,2.92
2023-03-12T02:11:57.224Z,3.78
2023-03-12T02:14:23.719Z,3.13
2023-03-12T02:16:50.287Z,2.70
2023-03-12T02:19:20.616Z,2.88
2023-03-12T02:21:47.017Z,3.00
2023-03-12T02:24:17.074Z,2.90
2023-03-12T02:26:44.811Z,2.70
2023-03-12T02:29:11.912Z,2.80
2023-03-12T02:31:41.120Z,2.70
2023-03-12T02:34:07.579Z,2.97
2023-03-12T02:36:33.936Z,2.78
2023-03-12T02:39:00.283Z,2.67
2023-03-12T02:41:28.759Z,3.45
2023-03-12T02:43:58.923Z,2.47
2023-03-12T02:46:25.714Z,2.60
2023-03-12T02:48:52.679Z,2.55
2023-03-12T02:51:19.057Z,2.33
2023-03-12T02:53:45.455Z,2.60
2023-03-12T02:56:11.828Z,2.50
2023-03-12T02:58:38.239Z,2.58
2023-03-12T03:01:06.203Z,2.67
2023-03-12T03:03:32.714Z,2.58
2023-03-12T03:05:59.126Z,2.58
2023-03-12T03:08:25.582Z,2.78
2023-03-12T03:10:52.068Z,2.53
2023-03-12T03:13:20.363Z,2.70
2023-03-12T03:15:46.836Z,3.20
2023-03-12T03:18:14.629Z,2.40
2023-03-12T03:20:40.996Z,2.55
2023-03-12T03:23:07.404Z,2.35
2023-03-12T03:25:33.977Z,2.90
2023-03-12T03:28:00.379Z,2.50
2023-03-12T03:30:26.741Z,2.90
2023-03-12T03:32:53.201Z,2.85
2023-03-12T03:35:20.978Z,2.80
2023-03-12T03:37:47.376Z,3.20
2023-03-12T03:40:13.769Z,3.25
2023-03-12T03:42:40.266Z,3.10
2023-03-12T03:45:08.517Z,2.90
2023-03-12T03:47:35.169Z,3.00
2023-03-12T03:50:01.617Z,2.92
2023-03-12T03:52:29.454Z,3.65
2023-03-12T03:54:55.952Z,3.30
2023-03-12T03:57:22.406Z,3.40
2023-03-12T03:59:48.935Z,3.70
2023-03-12T04:02:15.338Z,3.60
2023-03-12T04:04:41.742Z,3.10
2023-03-12T04:07:08.140Z,3.60
2023-03-12T04:09:36.225Z,3.60
2023-03-12T04:12:02.693Z,3.58
2023-03-12T04:14:29.023Z,3.63
2023-03-12T04:16:55.421Z,3.38
2023-03-12T04:19:21.878Z,3.42
2023-03-12T04:21:48.275Z,3.40
2023-03-12T04:24:15.661Z,3.13
2023-03-12T04:26:44.148Z,3.20
2023-03-12T04:29:10.539Z,3.47
2023-03-12T04:31:36.947Z,2.90
2023-03-12T04:34:03.633Z,3.15
2023-03-12T04:36:30.003Z,3.15
2023-03-12T04:38:56.598Z,2.97
2023-03-12T04:41:23.031Z,3.10
2023-03-12T04:43:51.128Z,3.00
2023-03-12T04:46:17.650Z,2.97
2023-03-12T04:48:44.074Z,3.03
2023-03-12T04:51:10.606Z,3.10
2023-03-12T04:53:37.068Z,3.38
2023-03-12T04:56:03.604Z,3.08
2023-03-12T04:58:30.021Z,3.47
2023-03-12T05:00:57.842Z,3.33
2023-03-12T05:03:24.301Z,3.65
2023-03-12T05:05:50.714Z,3.40
2023-03-12T05:08:17.116Z,3.00
2023-03-12T05:10:43.653Z,3.30
2023-03-12T05:13:13.526Z,3.22
2023-03-12T05:15:39.926Z,3.25
2023-03-12T05:18:07.775Z,4.00
2023-03-12T05:20:34.171Z,3.28
2023-03-12T05:23:00.647Z,3.15
2023-03-12T05:25:27.147Z,3.30
2023-03-12T05:27:53.540Z,3.10
2023-03-12T05:30:19.997Z,3.55
2023-03-12T05:32:46.422Z,3.10
2023-03-12T05:35:14.330Z,3.40
2023-03-12T05:37:41.102Z,3.72
2023-03-12T05:40:09.741Z,3.42
2023-03-12T05:42:36.217Z,3.28
2023-03-12T05:45:02.881Z,3.25
2023-03-12T05:47:29.453Z,3.25
2023-03-12T05:49:56.068Z,3.35
2023-03-12T05:52:23.890Z,3.33
2023-03-12T05:54:52.099Z,3.53
2023-03-12T05:57:18.952Z,3.70
2023-03-12T05:59:45.836Z,3.45
2023-03-12T06:02:13.107Z,3.65
2023-03-12T06:04:40.357Z,3.45
2023-03-12T06:07:07.046Z,3.78
2023-03-12T06:09:35.516Z,3.80
2023-03-12T06:12:01.971Z,4.22
2023-03-12T06:14:28.406Z,4.22
2023-03-12T06:16:55.235Z,4.47
2023-03-12T06:19:21.888Z,6.20
2023-03-12T06:21:48.495Z,6.93
2023-03-12T06:24:15.001Z,7.50
2023-03-12T06:26:42.985Z,8.43
2023-03-12T06:29:09.578Z,8.55
2023-03-12T06:31:38.723Z,8.85
2023-03-12T06:34:05.568Z,8.32
2023-03-12T06:36:32.236Z,7.88
2023-03-12T06:38:58.923Z,7.18
2023-03-12T06:41:25.328Z,6.38
2023-03-12T06:43:53.106Z,5.03
2023-03-12T06:46:20.186Z,4.35
2023-03-12T06:48:46.666Z,4.80
2023-03-12T06:51:13.942Z,4.88
2023-03-12T06:53:42.485Z,4.90
2023-03-12T06:56:09.114Z,4.47
2023-03-12T06:58:35.484Z,4.20
2023-03-12T07:01:03.918Z,4.47
2023-03-12T07:03:30.377Z,4.38
2023-03-12T07:05:57.204Z,4.38
2023-03-12T07:08:24.260Z,4.53
2023-03-12T07:10:50.670Z,4.88
2023-03-12T07:13:17.862Z,4.60
2023-03-12T07:15:44.392Z,3.70
2023-03-12T07:18:12.392Z,3.80
2023-03-12T07:20:39.750Z,4.18
2023-03-12T07:23:06.399Z,4.82
2023-03-12T07:25:34.983Z,4.35
2023-03-12T07:28:01.490Z,4.18
2023-03-12T07:30:27.940Z,4.28
2023-03-12T07:32:54.408Z,4.32
2023-03-12T07:35:22.348Z,4.57
2023-03-12T07:37:48.882Z,4.30
2023-03-12T07:40:15.383Z,3.70
2023-03-12T07:42:41.757Z,4.43
2023-03-12T07:45:08.428Z,4.55
2023-03-12T07:47:34.993Z,4.03
2023-03-12T07:50:01.468Z,4.15
2023-03-12T07:52:29.407Z,3.90
2023-03-12T07:54:55.933Z,4.32
2023-03-12T07:57:22.408Z,4.93
2023-03-12T07:59:48.887Z,4.40
2023-03-12T08:02:15.394Z,3.90
2023-03-12T08:04:41.974Z,4.53
2023-03-12T08:07:09.408Z,4.45
2023-03-12T08:09:38.056Z,3.90
2023-03-12T08:12:04.569Z,4.80
2023-03-12T08:14:30.993Z,4.38
2023-03-12T08:16:57.633Z,4.28
2023-03-12T08:19:24.015Z,4.18
2023-03-12T08:21:50.456Z,4.25
2023-03-12T08:24:16.825Z,4.07
2023-03-12T08:26:44.563Z,4.20
2023-03-12T08:29:10.989Z,4.20
2023-03-12T08:31:37.522Z,4.25
2023-03-12T08:34:03.963Z,4.00
2023-03-12T08:36:30.385Z,4.40
2023-03-12T08:38:56.765Z,4.40
2023-03-12T08:41:23.189Z,5.10
2023-03-12T08:43:50.945Z,4.60
2023-03-12T08:46:17.510Z,4.65
2023-03-12T08:48:43.941Z,4.43
2023-03-12T08:51:10.303Z,4.90
2023-03-12T08:53:36.774Z,4.78
2023-03-12T08:56:03.822Z,4.63
2023-03-12T08:58:30.334Z,4.57
2023-03-12T09:00:58.260Z,4.50
2023-03-12T09:03:24.944Z,4.57
2023-03-12T09:05:51.888Z,4.82
2023-03-12T09:08:18.276Z,4.47
2023-03-12T09:10:47.884Z,4.40
2023-03-12T09:15:40.475Z,4.00
2023-03-12T09:18:08.217Z,3.80
2023-03-12T09:20:34.655Z,4.28
2023-03-12T09:23:01.034Z,3.85
2023-03-12T09:25:27.463Z,4.40
2023-03-12T09:27:53.934Z,4.38
2023-03-12T09:30:21.277Z,4.32
2023-03-12T09:32:47.934Z,4.03
2023-03-12T09:35:15.932Z,4.15
2023-03-12T09:37:42.558Z,4.15
2023-03-12T09:40:12.335Z,4.65
2023-03-12T09:42:40.762Z,4.65
2023-03-12T09:45:07.782Z,4.45
2023-03-12T09:47:35.719Z,4.30
2023-03-12T09:50:05.418Z,4.30
2023-03-12T09:55:02.636Z,4.28
2023-03-12T09:57:29.431Z,4.53
2023-03-12T09:59:56.244Z,4.55
2023-03-12T10:02:37.152Z,4.60
2023-03-12T10:05:06.795Z,4.50
2023-03-12T10:10:26.476Z,4.57
2023-03-12T10:13:02.544Z,4.40
2023-03-12T10:15:36.457Z,4.32
2023-03-12T10:18:07.945Z,4.50
2023-03-12T10:20:46.392Z,4.53
2023-03-12T10:23:16.364Z,4.07
2023-03-12T10:25:46.984Z,4.22
2023-03-12T10:28:15.322Z,3.95
2023-03-12T10:30:45.816Z,3.92
2023-03-12T10:33:13.877Z,4.05
2023-03-12T10:35:40.499Z,4.03
2023-03-12T10:38:11.507Z,4.22
2023-03-12T10:40:37.901Z,4.43
2023-03-12T10:43:05.812Z,4.75
2023-03-12T10:45:35.114Z,4.43
2023-03-12T10:48:02.616Z,4.80
2023-03-12T10:50:29.722Z,4.90
2023-03-12T10:53:10.963Z,4.90
2023-03-12T10:55:37.357Z,4.90
2023-03-12T10:58:03.768Z,4.60
2023-03-12T11:00:32.520Z,4.72
2023-03-12T11:03:00.277Z,4.70
2023-03-12T11:05:28.252Z,3.75
2023-03-12T11:07:55.028Z,4.15
2023-03-12T11:10:23.429Z,4.10
2023-03-12T11:13:01.057Z,4.32
2023-03-12T11:15:28.549Z,3.97
2023-03-12T11:18:17.577Z,3.90
2023-03-12T11:20:43.976Z,3.88
2023-03-12T11:23:13.450Z,3.95
2023-03-12T11:25:40.243Z,4.57
2023-03-12T11:28:07.748Z,4.30
2023-03-12T11:30:36.670Z,4.45
2023-03-12T11:33:03.147Z,4.20
2023-03-12T11:35:38.945Z,4.57
2023-03-12T11:38:09.606Z,4.32
2023-03-12T11:40:45.945Z,4.20
2023-03-12T11:43:32.386Z,4.32
2023-03-12T11:46:11.596Z,4.50
2023-03-12T11:48:42.609Z,4.35
2023-03-12T11:51:16.084Z,4.30
2023-03-12T11:53:53.016Z,4.03
2023-03-12T11:56:24.548Z,3.78
2023-03-12T11:59:02.737Z,3.90
2023-03-12T12:01:33.279Z,3.72
2023-03-12T12:04:10.971Z,4.00
2023-03-12T12:06:42.540Z,3.83
2023-03-12T12:09:12.682Z,4.15
2023-03-12T12:11:46.035Z,3.90
2023-03-12T12:14:16.418Z,4.15
2023-03-12T12:16:51.408Z,4.00
2023-03-12T12:19:22.683Z,3.95
2023-03-12T12:21:55.840Z,4.00
2023-03-12T12:24:29.357Z,4.18
2023-03-12T12:26:59.541Z,3.90
2023-03-12T12:29:29.094Z,3.83
2023-03-12T12:34:39.621Z,3.83
2023-03-12T12:37:20.331Z,4.30
2023-03-12T12:39:48.712Z,4.07
2023-03-12T12:42:18.024Z,3.78
2023-03-12T12:44:47.676Z,3.80
2023-03-12T12:47:16.057Z,3.97
2023-03-12T12:49:43.944Z,4.20
2023-03-12T12:52:12.224Z,3.60
2023-03-12T12:54:45.013Z,3.17
2023-03-12T12:57:14.420Z,3.42
2023-03-12T12:59:42.526Z,4.00
2023-03-12T13:02:15.777Z,4.03
2023-03-12T13:04:42.500Z,3.65
2023-03-12T13:07:25.229Z,3.85
2023-03-12T13:09:55.481Z,3.40
2023-03-12T13:12:27.134Z,3.50
2023-03-12T13:14:54.684Z,3.95
2023-03-12T13:17:23.066Z,4.18
2023-03-12T13:19:55.615Z,4.10
2023-03-12T13:22:29.612Z,3.70
2023-03-12T13:24:59.992Z,3.50
2023-03-12T13:27:29.467Z,3.17
2023-03-12T13:32:52.698Z,3.53
2023-03-12T13:35:29.637Z,3.47
2023-03-12T13:38:03.566Z,3.88
2023-03-12T13:40:59.857Z,3.92
2023-03-12T13:43:41.253Z,3.80
2023-03-12T13:46:08.610Z,3.60
2023-03-12T13:48:36.082Z,4.18
2023-03-12T13:51:11.274Z,4.03
2023-03-12T13:53:40.676Z,3.95
2023-03-12T13:56:10.165Z,4.45
2023-03-12T13:58:44.309Z,3.72
2023-03-12T14:01:15.218Z,4.05
2023-03-12T14:03:43.099Z,3.45
2023-03-12T14:06:11.165Z,3.40
2023-03-12T14:08:52.596Z,3.40
2023-03-12T14:11:26.195Z,3.92
2023-03-12T14:14:09.415Z,3.40
2023-03-12T14:16:38.880Z,3.83
2023-03-12T14:21:34.048Z,4.05
2023-03-12T14:24:01.238Z,3.80
2023-03-12T14:26:28.837Z,3.92
2023-03-12T14:28:58.526Z,3.92
2023-03-12T14:31:26.917Z,3.75
2023-03-12T14:33:56.102Z,3.92
2023-03-12T14:36:24.005Z,3.92
2023-03-12T14:38:50.950Z,3.58
2023-03-12T14:41:19.905Z,3.70
2023-03-12T14:43:46.488Z,4.00
2023-03-12T14:46:14.687Z,3.60
2023-03-12T14:48:42.506Z,3.80
2023-03-12T14:51:19.724Z,3.40
2023-03-12T14:53:47.017Z,3.50
2023-03-12T14:56:14.705Z,3.80
2023-03-12T14:58:46.294Z,3.67
2023-03-12T15:01:13.385Z,4.53
2023-03-12T15:03:43.165Z,4.07
2023-03-12T15:06:14.508Z,3.70
2023-03-12T15:08:42.957Z,3.60
2023-03-12T15:11:10.579Z,3.55
2023-03-12T15:13:37.327Z,3.67
2023-03-12T15:16:04.280Z,3.67
2023-03-12T15:18:31.717Z,3.78
2023-03-12T15:21:01.314Z,3.45
2023-03-12T15:23:29.176Z,3.40
2023-03-12T15:26:16.389Z,3.50
2023-03-12T15:28:43.037Z,3.72
2023-03-12T15:31:11.170Z,3.60
2023-03-12T15:33:38.060Z,4.00
2023-03-12T15:36:15.710Z,3.75
2023-03-12T15:38:45.069Z,3.40
2023-03-12T15:41:18.529Z,3.65
2023-03-12T15:43:46.814Z,3.40
2023-03-12T15:46:13.885Z,3.67
2023-03-12T15:48:40.847Z,3.30
2023-03-12T15:51:13.727Z,3.15
2023-03-12T15:53:40.134Z,4.00
2023-03-12T15:56:20.336Z,3.40
2023-03-12T15:58:46.933Z,3.40
2023-03-12T16:01:14.886Z,3.58
2023-03-12T16:03:42.181Z,3.63
2023-03-12T16:06:11.558Z,3.28
2023-03-12T16:08:41.163Z,3.17
2023-03-12T16:13:33.847Z,3.50
2023-03-12T16:16:00.272Z,3.78
2023-03-12T16:18:26.776Z,3.28
2023-03-12T16:20:53.498Z,3.60
2023-03-12T16:23:19.913Z,3.60
2023-03-12T16:25:48.882Z,3.13
2023-03-12T16:28:16.686Z,3.40
2023-03-12T16:30:43.134Z,3.30
2023-03-12T16:33:13.245Z,3.28
2023-03-12T16:35:40.045Z,3.17
2023-03-12T16:38:06.480Z,3.60
2023-03-12T16:40:35.526Z,3.83
2023-03-12T16:43:04.279Z,3.20
2023-03-12T16:45:31.300Z,3.50
2023-03-12T16:47:59.006Z,3.58
2023-03-12T16:50:25.790Z,3.55
2023-03-12T16:52:52.209Z,3.40
2023-03-12T16:55:19.272Z,3.40
2023-03-12T16:57:47.079Z,3.58
2023-03-12T17:00:16.915Z,3.47
2023-03-12T17:02:43.333Z,3.90
2023-03-12T17:05:13.399Z,4.28
2023-03-12T17:07:39.785Z,4.28
2023-03-12T17:10:11.107Z,3.83
2023-03-12T17:12:42.835Z,4.22
2023-03-12T17:15:12.668Z,4.20
2023-03-12T17:17:40.486Z,4.13
2023-03-12T17:20:10.717Z,4.57
2023-03-12T17:22:37.466Z,4.10
2023-03-12T17:25:05.214Z,4.53
2023-03-12T17:27:31.783Z,3.95
2023-03-12T17:29:58.921Z,4.30
2023-03-12T17:32:25.425Z,4.00
2023-03-12T17:34:56.126Z,4.20
2023-03-12T17:37:22.535Z,4.25
2023-03-12T17:39:48.960Z,3.90
2023-03-12T17:42:15.313Z,4.32
2023-03-12T17:44:41.989Z,4.03
2023-03-12T17:47:08.603Z,3.92
2023-03-12T17:49:35.015Z,3.92
2023-03-12T17:52:03.494Z,3.80
2023-03-12T17:54:29.913Z,4.15
2023-03-12T17:56:56.295Z,3.95
2023-03-12T17:59:22.804Z,4.32
2023-03-12T18:01:49.822Z,4.68
2023-03-12T18:04:16.257Z,4.65
2023-03-12T18:06:42.661Z,4.18
2023-03-12T18:09:10.415Z,4.45
2023-03-12T18:11:36.787Z,4.15
2023-03-12T18:14:03.242Z,4.50
2023-03-12T18:16:29.680Z,4.40
2023-03-12T18:18:56.092Z,5.30
2023-03-12T18:21:22.483Z,4.75
2023-03-12T18:23:48.868Z,4.93
2023-03-12T18:26:16.654Z,5.38
2023-03-12T18:28:43.533Z,6.38
2023-03-12T18:31:10.040Z,5.72
2023-03-12T18:33:36.522Z,6.38
2023-03-12T18:36:03.024Z,6.78
2023-03-12T18:38:30.676Z,8.05
2023-03-12T18:41:01.910Z,8.18
2023-03-12T18:43:29.632Z,7.55
2023-03-12T18:45:56.025Z,7.15
2023-03-12T18:48:22.402Z,7.68
2023-03-12T18:50:49.748Z,7.78
2023-03-12T18:53:16.370Z,8.73
2023-03-12T18:55:50.633Z,8.13
2023-03-12T18:58:16.995Z,7.82
2023-03-12T19:00:44.838Z,7.60
2023-03-12T19:03:11.294Z,7.15
2023-03-12T19:05:37.731Z,7.43
2023-03-12T19:08:04.573Z,7.28
2023-03-12T19:10:30.928Z,8.45
2023-03-12T19:12:58.643Z,9.32
2023-03-12T19:15:25.420Z,9.55
2023-03-12T19:17:53.175Z,10.40
2023-03-12T19:20:19.874Z,11.25
2023-03-12T19:22:46.250Z,13.02
2023-03-12T19:25:12.642Z,13.35
2023-03-12T19:27:39.018Z,12.70
2023-03-12T19:30:06.066Z,12.07
2023-03-12T19:32:42.298Z,13.32
2023-03-12T19:35:11.889Z,12.95
2023-03-12T19:37:38.328Z,13.17
2023-03-12T19:40:07.466Z,13.65
2023-03-12T19:42:33.881Z,17.42
2023-03-12T19:45:00.272Z,15.38
2023-03-12T19:47:26.704Z,14.88
2023-03-12T19:49:53.097Z,14.55
2023-03-12T19:52:20.897Z,15.40
2023-03-12T19:55:01.497Z,15.43
2023-03-12T19:57:30.486Z,15.40
2023-03-12T19:59:56.876Z,15.50
2023-03-12T20:02:23.436Z,14.95
2023-03-12T20:04:49.966Z,14.90
2023-03-12T20:07:16.326Z,19.13
2023-03-12T20:09:44.038Z,16.77
2023-03-12T20:12:10.480Z,15.75
2023-03-12T20:14:36.914Z,15.88
2023-03-12T20:17:03.290Z,16.30
2023-03-12T20:19:29.669Z,16.85
2023-03-12T20:21:56.069Z,16.17
2023-03-12T20:24:22.535Z,15.63
2023-03-12T20:26:50.300Z,12.68
2023-03-12T20:29:16.820Z,13.18
2023-03-12T20:31:43.301Z,13.40
2023-03-12T20:34:09.712Z,13.40
2023-03-12T20:36:36.107Z,13.75
2023-03-12T20:39:02.490Z,15.13
2023-03-12T20:41:28.894Z,14.05
2023-03-12T20:43:56.999Z,18.10
2023-03-12T20:46:23.730Z,26.98
2023-03-12T20:48:50.349Z,22.30
2023-03-12T20:51:17.297Z,22.85
2023-03-12T20:53:43.810Z,25.83
2023-03-12T20:56:10.454Z,26.23
2023-03-12T20:58:37.108Z,27.85
2023-03-12T21:01:05.654Z,29.13
2023-03-12T21:03:32.511Z,33.08
2023-03-12T21:05:59.568Z,32.58
2023-03-12T21:08:25.977Z,29.98
2023-03-12T21:10:52.334Z,32.65
2023-03-12T21:13:19.257Z,33.22
2023-03-12T21:15:45.968Z,30.00
2023-03-12T21:18:13.736Z,26.50
2023-03-12T21:20:41.236Z,32.47
2023-03-12T21:23:08.349Z,32.80
2023-03-12T21:25:35.330Z,27.90
2023-03-12T21:28:01.697Z,29.77
2023-03-12T21:30:28.461Z,30.95
2023-03-12T21:32:54.964Z,29.40
2023-03-12T21:35:22.825Z,31.77
2023-03-12T21:37:49.310Z,37.17
2023-03-12T21:40:15.811Z,36.95
2023-03-12T21:42:42.186Z,38.83
2023-03-12T21:45:09.395Z,38.85
2023-03-12T21:47:36.022Z,45.10
2023-03-12T21:50:02.581Z,45.83
2023-03-12T21:52:30.304Z,43.92
2023-03-12T21:54:56.878Z,44.05
2023-03-12T21:57:23.227Z,45.90
2023-03-12T21:59:49.604Z,46.55
2023-03-12T22:02:16.000Z,45.08
2023-03-12T22:04:42.514Z,46.28
2023-03-12T22:07:08.969Z,45.05
2023-03-12T22:09:36.861Z,43.97
2023-03-12T22:12:03.524Z,43.28
2023-03-12T22:14:30.311Z,45.17
2023-03-12T22:16:57.045Z,44.38
2023-03-12T22:19:23.505Z,42.03
2023-03-12T22:21:49.893Z,42.67
2023-03-12T22:24:16.308Z,45.40
2023-03-12T22:26:45.448Z,43.45
2023-03-12T22:29:11.920Z,44.75
2023-03-12T22:31:38.381Z,45.47
2023-03-12T22:34:04.754Z,45.58
2023-03-12T22:36:31.445Z,45.13
2023-03-12T22:38:58.176Z,45.13
2023-03-12T22:41:25.545Z,44.83
2023-03-12T22:43:54.283Z,50.53
2023-03-12T22:46:21.857Z,48.97
2023-03-12T22:48:52.291Z,48.15
2023-03-12T22:51:18.715Z,48.38
2023-03-12T22:53:45.172Z,49.03
2023-03-12T22:56:12.090Z,50.95
2023-03-12T22:58:38.687Z,48.30
2023-03-12T23:01:07.284Z,51.90
2023-03-12T23:03:34.098Z,50.35
2023-03-12T23:06:00.806Z,45.83
2023-03-12T23:08:27.310Z,50.92
2023-03-12T23:10:54.508Z,58.45
2023-03-12T23:13:20.948Z,56.75
2023-03-12T23:15:47.460Z,53.33
2023-03-12T23:18:15.267Z,52.13
2023-03-12T23:20:41.728Z,49.08
2023-03-12T23:23:08.176Z,48.35
2023-03-12T23:25:34.548Z,49.05
2023-03-12T23:28:00.961Z,48.67
2023-03-12T23:30:27.486Z,53.38
2023-03-12T23:32:53.860Z,54.10
2023-03-12T23:35:21.786Z,55.83
2023-03-12T23:37:48.417Z,54.47
2023-03-12T23:40:15.079Z,54.17
2023-03-12T23:42:41.482Z,53.85
2023-03-12T23:45:08.486Z,54.97
2023-03-12T23:47:34.842Z,53.65
2023-03-12T23:50:01.196Z,50.28
2023-03-12T23:52:29.137Z,50.08
2023-03-12T23:54:55.567Z,51.55
2023-03-12T23:57:21.945Z,52.72
2023-03-12T23:59:48.411Z,51.67
